createdAt,value
2023-05-04T00:01:47.942Z,5.37
2023-05-04T00:04:14.533Z,5.32
2023-05-04T00:06:41.069Z,5.27
2023-05-04T00:09:07.617Z,5.23
2023-05-04T00:11:33.938Z,5.17
2023-05-04T00:14:00.399Z,5.13
2023-05-04T00:16:27.151Z,5.09
2023-05-04T00:18:53.630Z,5.06
2023-05-04T00:21:20.101Z,5.07
2023-05-04T00:23:46.451Z,5.11
2023-05-04T00:26:13.882Z,5.05
2023-05-04T00:28:40.588Z,4.99
2023-05-04T00:31:32.197Z,4.96
2023-05-04T00:33:58.578Z,4.90
2023-05-04T00:36:25.119Z,4.86
2023-05-04T00:38:54.375Z,4.87
2023-05-04T00:41:21.606Z,4.88
2023-05-04T00:44:06.307Z,4.84
2023-05-04T00:46:33.266Z,4.72
2023-05-04T00:48:59.763Z,4.65
2023-05-04T00:51:26.650Z,4.58
2023-05-04T00:53:57.574Z,4.57
2023-05-04T00:56:25.549Z,4.58
2023-05-04T00:58:53.874Z,4.58
2023-05-04T01:01:21.670Z,4.56
2023-05-04T01:03:50.472Z,4.51
2023-05-04T01:06:52.181Z,4.46
2023-05-04T01:09:41.470Z,4.37
2023-05-04T01:12:16.855Z,4.33
2023-05-04T01:14:43.939Z,4.30
2023-05-04T01:17:11.738Z,4.26
2023-05-04T01:19:38.377Z,4.23
2023-05-04T01:22:04.654Z,4.19
2023-05-04T01:24:31.338Z,4.17
2023-05-04T01:27:15.177Z,4.14
2023-05-04T01:29:48.990Z,4.11
2023-05-04T01:32:18.069Z,4.08
2023-05-04T01:34:44.936Z,4.03
2023-05-04T01:37:11.320Z,4.00
2023-05-04T01:39:38.072Z,3.98
2023-05-04T01:42:04.456Z,3.97
2023-05-04T01:44:30.822Z,3.95
2023-05-04T01:46:57.210Z,3.90
2023-05-04T01:49:23.572Z,3.86
2023-05-04T01:51:50.067Z,3.79
2023-05-04T01:54:16.461Z,3.74
2023-05-04T01:56:42.907Z,3.69
2023-05-04T01:59:09.218Z,3.67
2023-05-04T02:01:36.195Z,3.66
2023-05-04T02:04:03.078Z,3.66
2023-05-04T02:06:30.080Z,3.65
2023-05-04T02:08:56.479Z,3.63
2023-05-04T02:11:22.956Z,3.59
2023-05-04T02:13:49.366Z,3.57
2023-05-04T02:16:15.887Z,3.53
2023-05-04T02:18:42.331Z,3.50
2023-05-04T02:21:08.688Z,3.48
2023-05-04T02:23:35.030Z,3.43
2023-05-04T02:26:01.944Z,3.41
2023-05-04T02:28:28.373Z,3.45
2023-05-04T02:30:54.751Z,3.44
2023-05-04T02:33:21.095Z,3.45
2023-05-04T02:35:47.476Z,3.43
2023-05-04T02:38:13.872Z,3.40
2023-05-04T02:40:40.833Z,3.38
2023-05-04T02:43:07.144Z,3.37
2023-05-04T02:45:34.955Z,3.33
2023-05-04T02:48:01.821Z,3.28
2023-05-04T02:50:28.158Z,3.23
2023-05-04T02:53:21.181Z,3.21
2023-05-04T02:55:47.605Z,3.20
2023-05-04T02:58:13.918Z,3.18
2023-05-04T03:04:34.816Z,3.09
2023-05-04T03:07:01.193Z,3.07
2023-05-04T03:09:27.524Z,3.06
2023-05-04T03:11:54.371Z,3.04
2023-05-04T03:14:21.004Z,3.04
2023-05-04T03:16:47.432Z,3.04
2023-05-04T03:19:13.934Z,3.04
2023-05-04T03:21:40.355Z,3.02
2023-05-04T03:24:06.634Z,3.04
2023-05-04T03:26:32.984Z,3.06
2023-05-04T03:28:59.570Z,3.07
2023-05-04T03:31:26.449Z,3.11
2023-05-04T03:33:52.850Z,3.17
2023-05-04T03:36:19.207Z,3.22
2023-05-04T03:38:46.207Z,3.25
2023-05-04T03:41:13.239Z,3.29
2023-05-04T03:43:39.791Z,3.38
2023-05-04T03:46:06.120Z,3.42
2023-05-04T03:48:32.493Z,3.51
2023-05-04T03:50:58.962Z,3.55
2023-05-04T03:53:28.815Z,3.63
2023-05-04T03:55:55.312Z,3.71
2023-05-04T03:58:21.727Z,3.83
2023-05-04T04:00:50.870Z,3.96
2023-05-04T04:03:18.122Z,4.03
2023-05-04T04:05:44.509Z,4.11
2023-05-04T04:08:10.924Z,4.19
2023-05-04T04:10:37.342Z,4.29
2023-05-04T04:13:03.920Z,4.44
2023-05-04T04:15:30.382Z,4.58
2023-05-04T04:17:56.748Z,4.69
2023-05-04T04:20:23.260Z,4.79
2023-05-04T04:22:49.743Z,4.91
2023-05-04T04:25:16.031Z,5.05
2023-05-04T04:28:12.950Z,5.22
2023-05-04T04:30:40.190Z,5.39
2023-05-04T04:33:07.214Z,5.54
2023-05-04T04:35:34.422Z,5.72
2023-05-04T04:38:03.548Z,5.86
2023-05-04T04:40:30.346Z,6.04
2023-05-04T04:42:56.854Z,6.24
2023-05-04T04:45:23.421Z,6.44
2023-05-04T04:51:59.020Z,6.80
2023-05-04T04:54:26.715Z,6.97
2023-05-04T04:56:53.272Z,7.14
2023-05-04T04:59:20.032Z,7.26
2023-05-04T05:01:46.428Z,7.25
2023-05-04T05:04:13.307Z,7.34
2023-05-04T05:06:39.761Z,7.47
2023-05-04T05:09:06.219Z,7.56
2023-05-04T05:11:32.540Z,7.75
2023-05-04T05:13:59.322Z,7.96
2023-05-04T05:16:26.240Z,8.09
2023-05-04T05:18:52.778Z,8.28
2023-05-04T05:21:19.036Z,8.47
2023-05-04T05:23:45.372Z,8.66
2023-05-04T05:26:11.721Z,8.77
2023-05-04T05:28:38.109Z,9.02
2023-05-04T05:31:04.850Z,9.35
2023-05-04T05:33:31.119Z,9.73
2023-05-04T05:35:57.591Z,10.34
2023-05-04T05:38:24.065Z,11.12
2023-05-04T05:40:51.522Z,12.05
2023-05-04T05:43:17.956Z,13.06
2023-05-04T05:45:44.387Z,13.90
2023-05-04T05:48:11.012Z,14.41
2023-05-04T05:50:37.412Z,14.49
2023-05-04T05:53:03.750Z,14.86
2023-05-04T05:55:30.029Z,15.10
2023-05-04T06:02:15.006Z,15.29
2023-05-04T06:04:42.171Z,16.03
2023-05-04T06:07:08.601Z,16.27
2023-05-04T06:13:47.603Z,16.31
2023-05-04T06:16:14.156Z,16.65
2023-05-04T06:18:40.635Z,16.72
2023-05-04T06:21:07.322Z,16.56
2023-05-04T06:23:33.682Z,16.65
2023-05-04T06:26:00.165Z,16.96
2023-05-04T06:28:26.777Z,16.93
2023-05-04T06:31:56.361Z,17.21
2023-05-04T06:34:25.878Z,17.57
2023-05-04T06:36:52.199Z,17.83
2023-05-04T06:39:19.264Z,17.56
2023-05-04T06:41:45.976Z,17.33
2023-05-04T06:44:17.135Z,17.61
2023-05-04T06:46:43.467Z,18.04
2023-05-04T06:49:09.845Z,18.32
2023-05-04T06:51:39.616Z,18.03
2023-05-04T06:54:06.092Z,17.86
2023-05-04T06:56:32.444Z,17.61
2023-05-04T06:58:58.838Z,17.84
2023-05-04T07:01:25.533Z,17.81
2023-05-04T07:03:52.115Z,17.81
2023-05-04T07:06:19.001Z,17.99
2023-05-04T07:08:45.304Z,18.23
2023-05-04T07:11:11.836Z,18.88
2023-05-04T07:13:38.552Z,18.94
2023-05-04T07:16:08.528Z,18.69
2023-05-04T07:18:35.000Z,18.25
2023-05-04T07:21:16.302Z,18.39
2023-05-04T07:23:48.048Z,18.29
2023-05-04T07:26:14.465Z,17.93
2023-05-04T07:28:43.018Z,17.95
2023-05-04T07:31:12.234Z,18.16
2023-05-04T07:33:39.169Z,18.03
2023-05-04T07:36:06.445Z,17.99
2023-05-04T07:38:33.522Z,18.51
2023-05-04T07:41:00.119Z,19.10
2023-05-04T07:43:26.481Z,19.10
2023-05-04T07:45:53.382Z,19.15
2023-05-04T07:48:20.354Z,19.12
2023-05-04T07:50:47.077Z,18.99
2023-05-04T07:53:13.592Z,18.93
2023-05-04T07:55:40.272Z,18.80
2023-05-04T07:58:06.710Z,19.08
2023-05-04T08:00:33.031Z,18.63
2023-05-04T08:02:59.505Z,18.49
2023-05-04T08:05:25.852Z,18.82
2023-05-04T08:07:52.165Z,19.11
2023-05-04T08:10:21.313Z,19.18
2023-05-04T08:12:47.766Z,19.47
2023-05-04T08:15:14.250Z,19.89
2023-05-04T08:17:40.803Z,20.27
2023-05-04T08:20:08.907Z,20.54
2023-05-04T08:22:35.602Z,20.30
2023-05-04T08:25:02.545Z,19.79
2023-05-04T08:27:28.974Z,19.91
2023-05-04T08:29:57.117Z,20.83
2023-05-04T08:32:23.554Z,21.28
2023-05-04T08:34:51.044Z,20.42
2023-05-04T08:37:17.630Z,19.46
2023-05-04T08:39:44.011Z,18.69
2023-05-04T08:42:11.394Z,18.34
2023-05-04T08:44:37.821Z,17.89
2023-05-04T08:47:04.316Z,17.84
2023-05-04T08:49:30.678Z,18.12
2023-05-04T08:51:58.604Z,18.71
2023-05-04T08:54:26.699Z,19.00
2023-05-04T08:56:54.465Z,19.01
2023-05-04T08:59:22.800Z,19.17
2023-05-04T09:01:53.861Z,19.51
2023-05-04T09:04:21.719Z,20.06
2023-05-04T09:06:48.285Z,20.98
2023-05-04T09:09:14.827Z,22.16
2023-05-04T09:11:41.346Z,23.16
2023-05-04T09:14:07.667Z,23.84
2023-05-04T09:16:37.480Z,24.53
2023-05-04T09:19:16.858Z,24.76
2023-05-04T09:21:43.816Z,24.83
2023-05-04T09:24:11.924Z,25.00
2023-05-04T09:26:38.618Z,24.89
2023-05-04T09:29:15.120Z,24.36
2023-05-04T09:31:52.006Z,23.01
2023-05-04T09:34:22.477Z,22.05
2023-05-04T09:37:02.746Z,20.73
2023-05-04T09:39:32.433Z,20.56
2023-05-04T09:41:58.760Z,21.24
2023-05-04T09:44:29.344Z,21.12
2023-05-04T09:46:59.190Z,21.28
2023-05-04T09:49:30.486Z,21.96
2023-05-04T09:51:58.640Z,22.44
2023-05-04T09:54:26.516Z,22.01
2023-05-04T09:57:01.945Z,22.06
2023-05-04T09:59:32.853Z,22.42
2023-05-04T10:02:07.498Z,22.94
2023-05-04T10:04:42.895Z,22.90
2023-05-04T10:07:09.160Z,23.24
2023-05-04T10:09:35.608Z,23.30
2023-05-04T10:12:04.996Z,23.79
2023-05-04T10:14:34.019Z,23.95
2023-05-04T10:17:16.023Z,24.15
2023-05-04T10:19:57.439Z,23.75
2023-05-04T10:22:52.845Z,23.27
2023-05-04T10:25:54.723Z,23.02
2023-05-04T10:28:39.315Z,23.65
2023-05-04T10:31:06.717Z,23.75
2023-05-04T10:33:41.259Z,24.37
2023-05-04T10:36:08.874Z,24.88
2023-05-04T10:38:37.135Z,25.83
2023-05-04T10:41:17.438Z,26.24
2023-05-04T10:43:52.838Z,26.83
2023-05-04T10:46:20.905Z,27.29
2023-05-04T10:48:47.950Z,27.23
2023-05-04T10:51:22.373Z,26.92
2023-05-04T10:53:49.297Z,26.64
2023-05-04T10:56:26.366Z,26.52
2023-05-04T10:58:54.047Z,26.56
2023-05-04T11:01:21.326Z,26.65
2023-05-04T11:03:51.562Z,26.98
2023-05-04T11:06:24.101Z,28.15
2023-05-04T11:09:02.250Z,29.49
2023-05-04T11:11:28.796Z,30.24
2023-05-04T11:13:56.378Z,30.83
2023-05-04T11:16:23.923Z,31.56
2023-05-04T11:18:50.597Z,32.04
2023-05-04T11:21:26.965Z,32.29
2023-05-04T11:23:59.683Z,31.57
2023-05-04T11:26:27.631Z,31.32
2023-05-04T11:28:54.090Z,30.64
2023-05-04T11:31:20.847Z,30.50
2023-05-04T11:33:54.111Z,30.56
2023-05-04T11:36:21.752Z,29.41
2023-05-04T11:38:49.113Z,28.18
2023-05-04T11:41:15.681Z,27.32
2023-05-04T11:43:44.476Z,27.51
2023-05-04T11:46:12.069Z,28.68
2023-05-04T11:48:39.080Z,29.85
2023-05-04T11:51:06.115Z,30.20
2023-05-04T11:53:36.798Z,30.46
2023-05-04T11:56:07.078Z,31.25
2023-05-04T11:58:33.837Z,32.13
2023-05-04T12:01:00.344Z,32.74
2023-05-04T12:03:43.879Z,33.27
2023-05-04T12:06:15.032Z,33.46
2023-05-04T12:08:41.526Z,33.40
2023-05-04T12:11:20.796Z,33.44
2023-05-04T12:13:48.783Z,33.22
2023-05-04T12:16:19.832Z,33.27
2023-05-04T12:18:47.269Z,33.76
2023-05-04T12:21:17.901Z,33.19
2023-05-04T12:23:45.443Z,32.56
2023-05-04T12:26:12.875Z,31.97
2023-05-04T12:28:41.116Z,30.86
2023-05-04T12:31:08.230Z,30.44
2023-05-04T12:33:35.392Z,30.11
2023-05-04T12:36:04.104Z,28.87
2023-05-04T12:38:31.271Z,28.32
2023-05-04T12:41:00.185Z,28.28
2023-05-04T12:43:26.628Z,28.94
2023-05-04T12:45:53.844Z,30.11
2023-05-04T12:48:20.959Z,30.89
2023-05-04T12:50:49.473Z,31.01
2023-05-04T12:53:17.325Z,31.05
2023-05-04T12:55:44.022Z,31.18
2023-05-04T12:58:10.636Z,31.35
2023-05-04T13:00:38.121Z,30.90
2023-05-04T13:03:05.014Z,30.62
2023-05-04T13:05:31.498Z,31.17
2023-05-04T13:07:57.834Z,31.43
2023-05-04T13:10:24.450Z,31.88
2023-05-04T13:12:51.216Z,32.26
2023-05-04T13:15:17.746Z,32.00
2023-05-04T13:17:44.461Z,31.75
2023-05-04T13:20:12.491Z,31.84
2023-05-04T13:22:40.163Z,31.06
2023-05-04T13:25:07.262Z,30.35
2023-05-04T13:27:59.465Z,30.02
2023-05-04T13:30:25.838Z,29.27
2023-05-04T13:32:52.294Z,28.80
2023-05-04T13:35:18.912Z,28.05
2023-05-04T13:37:45.636Z,28.56
2023-05-04T13:40:13.034Z,29.01
2023-05-04T13:42:39.543Z,27.92
2023-05-04T13:45:07.028Z,27.26
2023-05-04T13:48:25.148Z,27.31
2023-05-04T13:50:51.916Z,27.87
2023-05-04T13:53:18.819Z,28.35
2023-05-04T13:55:45.538Z,28.74
2023-05-04T13:58:11.819Z,29.76
2023-05-04T14:00:38.266Z,30.73
2023-05-04T14:03:04.806Z,31.39
2023-05-04T14:05:31.528Z,31.48
2023-05-04T14:07:58.060Z,31.55
2023-05-04T14:10:24.476Z,31.72
2023-05-04T14:12:50.807Z,31.98
2023-05-04T14:15:21.638Z,31.71
2023-05-04T14:17:49.106Z,30.99
2023-05-04T14:20:15.418Z,29.89
2023-05-04T14:22:41.682Z,30.31
2023-05-04T14:25:08.485Z,31.38
2023-05-04T14:27:35.305Z,31.77
2023-05-04T14:30:03.195Z,32.14
2023-05-04T14:32:29.809Z,32.88
2023-05-04T14:35:05.740Z,32.90
2023-05-04T14:37:37.364Z,32.71
2023-05-04T14:40:10.123Z,32.72
2023-05-04T14:42:37.813Z,32.80
2023-05-04T14:45:06.137Z,33.39
2023-05-04T14:47:33.098Z,33.34
2023-05-04T14:50:00.759Z,33.35
2023-05-04T14:52:27.218Z,33.13
2023-05-04T14:54:53.597Z,32.66
2023-05-04T14:57:20.011Z,32.69
2023-05-04T14:59:47.186Z,32.84
2023-05-04T15:02:13.740Z,33.15
2023-05-04T15:04:40.148Z,33.51
2023-05-04T15:07:07.498Z,33.62
2023-05-04T15:09:37.101Z,33.15
2023-05-04T15:12:04.103Z,32.59
2023-05-04T15:14:30.415Z,32.82
2023-05-04T15:16:56.894Z,33.14
2023-05-04T15:19:23.324Z,33.45
2023-05-04T15:21:49.901Z,33.26
2023-05-04T15:24:16.606Z,33.27
2023-05-04T15:26:43.154Z,33.32
2023-05-04T15:29:09.498Z,33.65
2023-05-04T15:31:35.969Z,34.03
2023-05-04T15:34:02.580Z,34.49
2023-05-04T15:36:31.038Z,35.11
2023-05-04T15:38:57.656Z,35.68
2023-05-04T15:41:24.105Z,35.88
2023-05-04T15:43:50.436Z,35.47
2023-05-04T15:46:16.938Z,35.16
2023-05-04T15:48:43.529Z,34.88
2023-05-04T15:51:11.366Z,35.02
2023-05-04T15:54:34.866Z,35.19
2023-05-04T15:57:02.956Z,35.26
2023-05-04T15:59:29.463Z,34.78
2023-05-04T16:01:55.855Z,33.32
2023-05-04T16:04:22.282Z,31.87
2023-05-04T16:06:48.653Z,30.68
2023-05-04T16:09:16.534Z,29.57
2023-05-04T16:11:46.297Z,28.60
2023-05-04T16:14:13.521Z,27.61
2023-05-04T16:16:40.795Z,26.70
2023-05-04T16:19:08.848Z,25.93
2023-05-04T16:21:36.810Z,25.17
2023-05-04T16:24:04.004Z,24.43
2023-05-04T16:26:30.363Z,23.96
2023-05-04T16:28:56.799Z,23.62
2023-05-04T16:31:23.136Z,23.43
2023-05-04T16:33:49.565Z,23.22
2023-05-04T16:36:15.919Z,22.98
2023-05-04T16:38:42.319Z,22.67
2023-05-04T16:41:08.623Z,22.33
2023-05-04T16:43:35.069Z,22.06
2023-05-04T16:46:01.966Z,21.80
2023-05-04T16:48:28.423Z,21.57
2023-05-04T16:50:54.797Z,21.29
2023-05-04T16:53:21.199Z,21.05
2023-05-04T16:55:47.628Z,20.96
2023-05-04T16:58:13.950Z,20.86
2023-05-04T17:00:41.802Z,20.68
2023-05-04T17:03:08.261Z,20.51
2023-05-04T17:05:35.022Z,20.31
2023-05-04T17:08:01.486Z,20.18
2023-05-04T17:10:27.713Z,20.05
2023-05-04T17:12:54.855Z,19.91
2023-05-04T17:15:26.130Z,19.77
2023-05-04T17:17:54.879Z,19.59
2023-05-04T17:20:23.351Z,19.40
2023-05-04T17:22:51.182Z,19.24
2023-05-04T17:25:17.639Z,19.13
2023-05-04T17:28:09.904Z,19.02
2023-05-04T17:30:36.682Z,18.91
2023-05-04T17:33:03.320Z,18.75
2023-05-04T17:35:29.693Z,18.62
2023-05-04T17:37:58.355Z,18.52
2023-05-04T17:40:28.416Z,18.42
2023-05-04T17:42:55.279Z,18.31
2023-05-04T17:45:32.368Z,18.16
2023-05-04T17:47:59.029Z,18.03
2023-05-04T17:50:25.630Z,17.90
2023-05-04T17:52:53.428Z,17.76
2023-05-04T17:55:19.912Z,17.58
2023-05-04T18:01:59.859Z,17.20
2023-05-04T18:04:26.361Z,17.04
2023-05-04T18:06:52.684Z,16.83
2023-05-04T18:09:19.239Z,16.68
2023-05-04T18:11:46.496Z,16.54
2023-05-04T18:14:12.874Z,16.42
2023-05-04T18:16:39.451Z,16.29
2023-05-04T18:19:06.103Z,16.18
2023-05-04T18:21:36.465Z,16.09
2023-05-04T18:24:03.851Z,15.97
2023-05-04T18:26:30.264Z,15.84
2023-05-04T18:29:04.225Z,15.72
2023-05-04T18:31:38.312Z,15.59
2023-05-04T18:34:05.274Z,15.49
2023-05-04T18:36:31.962Z,15.31
2023-05-04T18:38:59.981Z,15.08
2023-05-04T18:41:27.158Z,14.87
2023-05-04T18:43:55.406Z,14.75
2023-05-04T18:46:22.670Z,14.71
2023-05-04T18:48:49.558Z,14.72
2023-05-04T18:51:15.825Z,14.67
2023-05-04T18:53:42.182Z,14.66
2023-05-04T18:56:10.068Z,14.65
2023-05-04T18:58:37.642Z,14.60
2023-05-04T19:01:05.354Z,14.58
2023-05-04T19:03:32.175Z,14.52
2023-05-04T19:05:58.782Z,14.39
2023-05-04T19:08:25.322Z,14.33
2023-05-04T19:10:52.205Z,14.25
2023-05-04T19:13:20.411Z,14.17
2023-05-04T19:15:46.766Z,14.10
2023-05-04T19:18:13.024Z,13.99
2023-05-04T19:20:39.643Z,13.86
2023-05-04T19:23:06.499Z,13.80
2023-05-04T19:25:35.247Z,13.69
2023-05-04T19:28:09.202Z,13.67
2023-05-04T19:30:39.384Z,13.67
2023-05-04T19:33:07.523Z,13.66
2023-05-04T19:35:33.883Z,13.55
2023-05-04T19:38:00.923Z,13.46
2023-05-04T19:40:27.263Z,13.38
2023-05-04T19:42:53.545Z,13.29
2023-05-04T19:45:20.037Z,13.25
2023-05-04T19:47:47.711Z,13.18
2023-05-04T19:50:15.755Z,13.08
2023-05-04T19:52:42.159Z,13.01
2023-05-04T19:55:08.722Z,12.98
2023-05-04T19:57:35.586Z,12.93
2023-05-04T20:00:03.029Z,12.84
2023-05-04T20:02:29.596Z,12.79
2023-05-04T20:04:56.086Z,12.78
2023-05-04T20:07:22.478Z,12.84
2023-05-04T20:10:16.661Z,12.84
2023-05-04T20:12:42.930Z,12.81
2023-05-04T20:15:09.948Z,12.79
2023-05-04T20:17:36.352Z,12.81
2023-05-04T20:20:03.154Z,12.79
2023-05-04T20:22:29.498Z,12.75
2023-05-04T20:24:56.371Z,12.72
2023-05-04T20:27:22.755Z,12.69
2023-05-04T20:29:49.229Z,12.67
2023-05-04T20:32:15.837Z,12.64
2023-05-04T20:34:42.987Z,12.56
2023-05-04T20:37:09.413Z,12.45
2023-05-04T20:39:38.179Z,12.46
2023-05-04T20:42:07.466Z,12.44
2023-05-04T20:44:33.803Z,12.44
2023-05-04T20:47:00.207Z,12.42
2023-05-04T20:49:26.498Z,12.36
2023-05-04T20:51:52.843Z,12.33
2023-05-04T20:54:19.686Z,12.35
2023-05-04T20:56:45.946Z,12.32
2023-05-04T20:59:12.160Z,12.24
2023-05-04T21:01:38.546Z,12.18
2023-05-04T21:04:05.065Z,12.11
2023-05-04T21:06:31.339Z,12.06
2023-05-04T21:08:57.648Z,11.99
2023-05-04T21:11:23.993Z,11.93
2023-05-04T21:13:50.553Z,11.85
2023-05-04T21:16:19.404Z,11.79
2023-05-04T21:18:45.716Z,11.72
2023-05-04T21:21:12.058Z,11.65
2023-05-04T21:23:38.744Z,11.58
2023-05-04T21:26:05.020Z,11.54
2023-05-04T21:28:31.425Z,11.50
2023-05-04T21:30:58.397Z,11.43
2023-05-04T21:33:28.327Z,11.34
2023-05-04T21:35:54.714Z,11.29
2023-05-04T21:38:22.260Z,11.29
2023-05-04T21:40:48.934Z,11.30
2023-05-04T21:43:15.506Z,11.27
2023-05-04T21:45:41.785Z,11.27
2023-05-04T21:48:08.069Z,11.26
2023-05-04T21:50:34.409Z,11.21
2023-05-04T21:53:00.789Z,11.15
2023-05-04T21:55:28.239Z,11.11
2023-05-04T21:57:55.642Z,11.05
2023-05-04T22:01:17.041Z,11.03
2023-05-04T22:03:43.941Z,11.01
2023-05-04T22:06:10.323Z,10.99
2023-05-04T22:08:37.248Z,10.99
2023-05-04T22:11:03.554Z,10.99
2023-05-04T22:13:30.001Z,11.01
2023-05-04T22:15:56.383Z,11.02
2023-05-04T22:18:23.222Z,11.06
2023-05-04T22:20:50.186Z,11.04
2023-05-04T22:23:16.500Z,11.01
2023-05-04T22:25:42.923Z,10.97
2023-05-04T22:28:09.326Z,10.89
2023-05-04T22:30:35.809Z,10.85
2023-05-04T22:33:03.485Z,10.81
2023-05-04T22:35:30.976Z,10.82
2023-05-04T22:37:58.324Z,10.80
2023-05-04T22:40:24.995Z,10.74
2023-05-04T22:47:16.695Z,10.60
2023-05-04T22:49:43.590Z,10.55
2023-05-04T22:52:14.960Z,10.50
2023-05-04T22:54:41.598Z,10.43
2023-05-04T22:57:08.147Z,10.42
2023-05-04T22:59:34.472Z,10.36
2023-05-04T23:02:01.324Z,10.32
2023-05-04T23:04:27.740Z,10.27
2023-05-04T23:06:54.125Z,10.20
2023-05-04T23:09:20.482Z,10.18
2023-05-04T23:11:46.961Z,10.15
2023-05-04T23:14:13.448Z,10.10
2023-05-04T23:16:39.864Z,10.10
2023-05-04T23:19:06.457Z,10.08
2023-05-04T23:25:46.649Z,10.03
2023-05-04T23:28:13.007Z,10.02
2023-05-04T23:30:39.392Z,9.98
2023-05-04T23:37:32.858Z,9.98
2023-05-04T23:39:59.721Z,10.01
2023-05-04T23:42:26.141Z,10.03
2023-05-04T23:44:55.743Z,10.04
2023-05-04T23:47:22.545Z,10.07
2023-05-04T23:54:02.770Z,10.11
2023-05-04T23:56:30.473Z,10.11
2023-05-04T23:58:56.892Z,10.07
